createdAt,value
2023-01-03T00:00:35.741Z,49.5
2023-01-03T00:02:33.342Z,40.1
2023-01-03T00:04:30.922Z,32.7
2023-01-03T00:06:28.414Z,44.6
2023-01-03T00:08:33.848Z,37.2
2023-01-03T00:10:31.437Z,35.9
2023-01-03T00:12:31.344Z,34.6
2023-01-03T00:14:26.553Z,41.1
2023-01-03T00:16:24.139Z,42.4
2023-01-03T00:18:21.647Z,35.2
2023-01-03T00:20:19.200Z,45
2023-01-03T00:22:24.695Z,46.2
2023-01-03T00:24:22.226Z,37.2
2023-01-03T00:26:19.780Z,43.5
2023-01-03T00:28:17.320Z,61.3
2023-01-03T00:30:14.906Z,36.5
2023-01-03T00:32:12.474Z,53.6
2023-01-03T00:34:09.996Z,50.8
2023-01-03T00:36:15.455Z,39.9
2023-01-03T00:46:03.197Z,40
2023-01-03T00:48:00.706Z,58.7
2023-01-03T00:50:06.147Z,40.3
2023-01-03T00:52:03.709Z,43.4
2023-01-03T00:55:03.958Z,43.1
2023-01-03T00:58:59.053Z,36.2
2023-01-03T01:00:56.763Z,34
2023-01-03T01:03:02.300Z,37.4
2023-01-03T01:04:59.622Z,52.4
2023-01-03T01:06:57.360Z,45.8
2023-01-03T01:08:54.743Z,36.1
2023-01-03T01:10:52.314Z,34.3
2023-01-03T01:12:49.821Z,31.1
2023-01-03T01:14:47.396Z,31.7
2023-01-03T01:16:52.877Z,40.4
2023-01-03T01:18:50.407Z,38.1
2023-01-03T01:20:47.983Z,49.7
2023-01-03T01:22:45.532Z,35.4
2023-01-03T01:24:43.067Z,34.1
2023-01-03T01:26:40.612Z,33.7
2023-01-03T01:28:38.195Z,39.6
2023-01-03T01:30:43.662Z,30.9
2023-01-03T01:32:41.153Z,31.3
2023-01-03T01:34:38.704Z,32.2
2023-01-03T01:36:36.271Z,30.3
2023-01-03T01:38:33.816Z,33.8
2023-01-03T01:40:31.409Z,33.1
2023-01-03T01:42:30.697Z,40.8
2023-01-03T01:44:34.407Z,38.3
2023-01-03T01:50:52.681Z,24.3
2023-01-03T01:52:50.235Z,33.7
2023-01-03T01:54:47.771Z,39.2
2023-01-03T01:56:53.227Z,34.2
2023-01-03T01:58:50.796Z,31.2
2023-01-03T02:00:48.362Z,26.1
2023-01-03T02:02:46.140Z,39.5
2023-01-03T02:04:43.467Z,28.8
2023-01-03T02:06:41.035Z,34.4
2023-01-03T02:08:38.621Z,36.3
2023-01-03T02:10:45.596Z,45.7
2023-01-03T02:12:43.202Z,24.5
2023-01-03T02:14:40.757Z,34.2
2023-01-03T02:16:38.293Z,39.9
2023-01-03T02:18:35.843Z,29
2023-01-03T02:20:33.399Z,36.6
2023-01-03T02:24:36.394Z,38.5
2023-01-03T02:30:29.035Z,33.1
2023-01-03T02:32:26.569Z,40.1
2023-01-03T02:34:24.142Z,38.1
2023-01-03T02:36:21.707Z,37.9
2023-01-03T02:38:27.156Z,39.8
2023-01-03T02:40:24.727Z,32
2023-01-03T02:42:22.265Z,45.5
2023-01-03T02:43:24.984Z,49.1
2023-01-03T02:45:22.520Z,41.8
2023-01-03T02:47:20.105Z,37.6
2023-01-03T02:51:23.074Z,52.3
2023-01-03T02:53:20.610Z,42.3
2023-01-03T02:59:13.230Z,35.7
2023-01-03T03:01:10.818Z,37.2
2023-01-03T03:05:13.756Z,46.6
2023-01-03T03:09:08.870Z,38.7
2023-01-03T03:13:03.963Z,40.5
2023-01-03T03:15:01.472Z,40.3
2023-01-03T03:16:59.054Z,50.6
2023-01-03T03:19:04.469Z,42.5
2023-01-03T03:21:02.005Z,38.3
2023-01-03T03:22:59.566Z,42.4
2023-01-03T03:26:54.641Z,42.7
2023-01-03T03:28:52.182Z,40.3
2023-01-03T03:30:49.717Z,57.6
2023-01-03T03:32:55.133Z,65.6
2023-01-03T03:34:52.681Z,68.3
2023-01-03T03:36:50.228Z,54.9
2023-01-03T03:37:52.951Z,86.4
2023-01-03T03:39:50.485Z,62.2
2023-01-03T03:43:45.532Z,118
2023-01-03T03:45:50.969Z,69.3
2023-01-03T03:49:46.018Z,90.4
2023-01-03T03:51:43.557Z,71.6
2023-01-03T03:53:41.078Z,104
2023-01-03T03:59:41.599Z,52.3
2023-01-03T04:01:39.285Z,76.9
2023-01-03T04:05:34.248Z,94
2023-01-03T04:07:31.757Z,70
2023-01-03T04:09:29.331Z,92.8
2023-01-03T04:13:32.295Z,73.5
2023-01-03T04:15:29.861Z,81
2023-01-03T04:17:27.384Z,106.4
2023-01-03T04:19:24.891Z,63.6
2023-01-03T04:21:22.414Z,102.3
2023-01-03T04:23:19.985Z,54.2
2023-01-03T04:25:17.528Z,49.9
2023-01-03T04:27:22.951Z,128.8
2023-01-03T04:29:20.493Z,79.4
2023-01-03T04:31:18.087Z,64.9
2023-01-03T04:42:16.390Z,64
2023-01-03T04:44:13.959Z,64.2
2023-01-03T04:46:11.590Z,79.8
2023-01-03T04:48:09.043Z,74.6
2023-01-03T04:50:06.602Z,57.9
2023-01-03T04:52:04.185Z,58.9
2023-01-03T04:54:09.597Z,81.1
2023-01-03T04:56:07.126Z,68.5
2023-01-03T04:58:04.662Z,74.3
2023-01-03T05:00:02.325Z,64.3
2023-01-03T05:02:00.012Z,62.9
2023-01-03T05:03:57.385Z,53.6
2023-01-03T05:05:54.863Z,64.5
2023-01-03T05:08:00.328Z,60.6
2023-01-03T05:11:55.443Z,66
2023-01-03T05:13:53.024Z,60.8
2023-01-03T05:15:50.592Z,44.7
2023-01-03T05:17:48.101Z,61.5
2023-01-03T05:21:51.133Z,67.9
2023-01-03T05:23:48.705Z,45.3
2023-01-03T05:25:46.244Z,68.4
2023-01-03T05:28:17.263Z,53
2023-01-03T05:30:10.725Z,54.8
2023-01-03T05:34:13.746Z,62.2
2023-01-03T05:36:11.296Z,49.4
2023-01-03T05:38:08.861Z,51.3
2023-01-03T05:42:03.973Z,66.1
2023-01-03T05:44:01.553Z,69.8
2023-01-03T05:45:59.135Z,49.8
2023-01-03T05:48:04.523Z,61.9
2023-01-03T05:50:02.113Z,68.6
2023-01-03T05:51:59.660Z,59.9
2023-01-03T05:53:57.493Z,59.8
2023-01-03T05:55:54.776Z,68.9
2023-01-03T05:57:52.392Z,63.7
2023-01-03T05:59:49.919Z,55
2023-01-03T06:01:55.572Z,57.8
2023-01-03T06:03:52.951Z,67.3
2023-01-03T06:05:50.722Z,66.1
2023-01-03T06:07:48.029Z,61.5
2023-01-03T06:09:45.618Z,67.8
2023-01-03T06:11:43.182Z,71.3
2023-01-03T06:15:46.167Z,57.5
2023-01-03T06:17:43.722Z,68.3
2023-01-03T06:20:44.069Z,59
2023-01-03T06:22:41.633Z,70.8
2023-01-03T06:24:39.171Z,64.3
2023-01-03T06:26:36.737Z,66.2
2023-01-03T06:28:42.205Z,56.9
2023-01-03T06:30:39.813Z,71.4
2023-01-03T06:32:37.322Z,71.7
2023-01-03T06:34:34.868Z,64
2023-01-03T06:36:32.400Z,67.8
2023-01-03T06:38:29.958Z,76.3
2023-01-03T06:40:34.003Z,73.1
2023-01-03T06:42:32.985Z,70.4
2023-01-03T06:46:28.165Z,65.7
2023-01-03T06:48:25.621Z,79.3
2023-01-03T06:50:23.185Z,68.7
2023-01-03T06:56:23.783Z,66.9
2023-01-03T06:58:21.316Z,61.5
2023-01-03T07:00:18.847Z,60.5
2023-01-03T07:04:14.004Z,67.5
2023-01-03T07:06:11.536Z,76.4
2023-01-03T07:08:09.084Z,73.6
2023-01-03T07:10:14.529Z,72.3
2023-01-03T07:12:12.076Z,78.3
2023-01-03T07:14:09.629Z,77
2023-01-03T07:15:12.337Z,77
2023-01-03T07:17:09.891Z,79.6
2023-01-03T07:19:07.431Z,67.7
2023-01-03T07:21:05.009Z,75.8
2023-01-03T07:23:10.441Z,67.1
2023-01-03T07:25:07.968Z,58.1
2023-01-03T07:27:05.555Z,58.2
2023-01-03T07:29:03.113Z,109.5
2023-01-03T07:31:00.674Z,78.9
2023-01-03T07:32:58.173Z,62.6
2023-01-03T07:38:58.748Z,74.8
2023-01-03T07:40:56.302Z,64.1
2023-01-03T07:42:53.822Z,72.4
2023-01-03T07:48:46.459Z,71.1
2023-01-03T07:50:53.460Z,64.8
2023-01-03T07:54:48.532Z,72.1
2023-01-03T07:56:46.045Z,78.8
2023-01-03T07:58:43.655Z,61.4
2023-01-03T08:00:41.150Z,68.1
2023-01-03T08:06:41.720Z,61.8
2023-01-03T08:08:39.238Z,56
2023-01-03T08:09:41.988Z,55.6
2023-01-03T08:13:37.113Z,58.2
2023-01-03T08:15:34.686Z,50.3
2023-01-03T08:19:43.491Z,45.1
2023-01-03T08:23:32.744Z,69.1
2023-01-03T08:29:25.399Z,46.9
2023-01-03T08:33:28.441Z,51.1
2023-01-03T08:35:25.969Z,52.5
2023-01-03T08:37:23.526Z,48.4
2023-01-03T08:39:21.038Z,55.8
2023-01-03T08:41:18.602Z,46.7
2023-01-03T08:43:16.161Z,55.9
2023-01-03T08:45:21.617Z,49.3
2023-01-03T08:47:19.330Z,56.3
2023-01-03T08:49:16.694Z,53.5
2023-01-03T08:51:14.246Z,62.4
2023-01-03T08:53:11.818Z,46.6
2023-01-03T08:55:09.387Z,51
2023-01-03T08:57:06.912Z,45.7
2023-01-03T08:59:12.367Z,59.6
2023-01-03T09:01:10.019Z,50.3
2023-01-03T09:03:07.783Z,54.3
2023-01-03T09:07:22.015Z,45.4
2023-01-03T09:11:25.021Z,46.1
2023-01-03T09:13:22.547Z,51.5
2023-01-03T09:15:20.123Z,41.9
2023-01-03T09:19:15.246Z,40.5
2023-01-03T09:21:12.791Z,44.9
2023-01-03T09:23:10.363Z,44.4
2023-01-03T09:25:15.834Z,53.8
2023-01-03T09:27:13.369Z,37.5
2023-01-03T09:31:08.617Z,28.8
2023-01-03T09:33:06.061Z,37.1
2023-01-03T09:35:03.615Z,24.8
2023-01-03T09:39:06.625Z,41
2023-01-03T09:41:04.220Z,47.1
2023-01-03T09:43:01.772Z,26.9
2023-01-03T09:46:57.014Z,30.3
2023-01-03T09:48:54.499Z,36.3
2023-01-03T09:51:17.165Z,43.6
2023-01-03T09:52:57.530Z,24.8
2023-01-03T09:54:55.081Z,35.1
2023-01-03T09:56:52.671Z,37.3
2023-01-03T09:57:55.380Z,28.2
2023-01-03T09:59:52.973Z,34
2023-01-03T10:01:50.680Z,31.8
2023-01-03T10:03:52.011Z,25.9
2023-01-03T10:05:53.557Z,24.2
2023-01-03T10:13:43.811Z,40.9
2023-01-03T10:17:38.935Z,106.5
2023-01-03T10:19:44.397Z,82.6
2023-01-03T10:21:41.957Z,33.7
2023-01-03T10:23:39.526Z,31
2023-01-03T10:27:34.665Z,69.6
2023-01-03T10:29:32.339Z,51.3
2023-01-03T10:31:29.860Z,35.8
2023-01-03T10:33:35.239Z,45.7
2023-01-03T10:35:32.859Z,81.8
2023-01-03T10:39:28.419Z,75.5
2023-01-03T10:41:26.004Z,75.7
2023-01-03T10:43:23.577Z,136.9
2023-01-03T10:49:29.503Z,33.9
2023-01-03T10:52:24.558Z,27
2023-01-03T10:58:17.263Z,30.8
2023-01-03T11:00:22.835Z,59.5
2023-01-03T11:02:20.486Z,61.2
2023-01-03T11:04:17.851Z,44.5
2023-01-03T11:06:15.421Z,34.3
2023-01-03T11:08:13.019Z,29
2023-01-03T11:10:10.574Z,29.7
2023-01-03T11:12:08.157Z,37.5
2023-01-03T11:14:13.624Z,70.3
2023-01-03T11:16:11.477Z,25.8
2023-01-03T11:18:08.805Z,25.8
2023-01-03T11:20:06.400Z,37.7
2023-01-03T11:22:03.964Z,31.3
2023-01-03T11:31:59.917Z,26
2023-01-03T11:33:57.392Z,25.6
2023-01-03T11:35:54.976Z,25.6
2023-01-03T11:41:55.614Z,42.4
2023-01-03T11:43:53.159Z,23.6
2023-01-03T11:45:50.786Z,23.6
2023-01-03T11:46:53.579Z,28
2023-01-03T11:48:51.102Z,29.3
2023-01-03T11:50:48.677Z,35.8
2023-01-03T11:52:46.252Z,38.1
2023-01-03T11:54:53.534Z,26
2023-01-03T11:56:49.337Z,30.6
2023-01-03T11:58:46.894Z,25.4
2023-01-03T12:00:44.487Z,43.9
2023-01-03T12:02:42.112Z,19.2
2023-01-03T12:04:39.611Z,24.6
2023-01-03T12:08:42.718Z,24.3
2023-01-03T12:10:40.256Z,24.2
2023-01-03T12:12:37.812Z,22.8
2023-01-03T12:14:35.387Z,15.5
2023-01-03T12:16:33.061Z,21.6
2023-01-03T12:18:30.555Z,19.7
2023-01-03T12:20:28.150Z,19.6
2023-01-03T12:22:33.641Z,25.3
2023-01-03T12:26:28.826Z,19.8
2023-01-03T12:28:26.423Z,29.4
2023-01-03T12:30:23.962Z,18.1
2023-01-03T12:32:21.568Z,31
2023-01-03T12:34:19.150Z,18.3
2023-01-03T12:36:24.597Z,23.8
2023-01-03T12:38:22.197Z,12.6
2023-01-03T12:40:19.780Z,18.6
2023-01-03T12:42:42.455Z,29
2023-01-03T12:44:40.072Z,28.9
2023-01-03T12:46:37.679Z,28.8
2023-01-03T12:48:43.116Z,17.4
2023-01-03T12:50:40.687Z,24.2
2023-01-03T12:54:35.885Z,15.1
2023-01-03T12:56:33.492Z,19
2023-01-03T12:58:37.079Z,17.4
2023-01-03T13:00:28.678Z,21
2023-01-03T13:02:34.465Z,19.2
2023-01-03T13:04:31.746Z,17.1
2023-01-03T13:06:29.338Z,20.2
2023-01-03T13:08:26.903Z,16.1
2023-01-03T13:12:22.076Z,22.8
2023-01-03T13:14:19.718Z,13.1
2023-01-03T13:16:25.217Z,17.5
2023-01-03T13:18:22.776Z,18.2
2023-01-03T13:20:20.359Z,34.5
2023-01-03T13:22:17.978Z,22
2023-01-03T13:24:15.565Z,24.3
2023-01-03T13:26:13.145Z,23.4
2023-01-03T13:28:10.750Z,20
2023-01-03T13:30:16.240Z,18.7
2023-01-03T13:32:15.459Z,26.2
2023-01-03T13:35:15.681Z,28.4
2023-01-03T13:41:17.807Z,20.4
2023-01-03T13:45:11.481Z,23.7
2023-01-03T13:47:09.170Z,14.2
2023-01-03T13:49:06.675Z,19.3
2023-01-03T13:51:04.267Z,22
2023-01-03T13:53:01.891Z,13.6
2023-01-03T13:54:59.464Z,26.8
2023-01-03T13:59:02.520Z,14.8
2023-01-03T14:01:05.599Z,18.3
2023-01-03T14:02:58.008Z,23.6
2023-01-03T14:06:52.875Z,32.5
2023-01-03T14:08:50.442Z,13.2
2023-01-03T14:10:55.915Z,21.7
2023-01-03T14:12:53.478Z,25.8
2023-01-03T14:14:51.086Z,25.2
2023-01-03T14:16:48.769Z,12.9
2023-01-03T14:18:46.236Z,12.3
2023-01-03T14:20:43.862Z,21.5
2023-01-03T14:22:41.435Z,12.2
2023-01-03T14:24:46.902Z,18.4
2023-01-03T14:26:44.501Z,10.8
2023-01-03T14:28:42.117Z,10.6
2023-01-03T14:31:42.525Z,13.7
2023-01-03T14:33:40.053Z,13.7
2023-01-03T14:35:37.659Z,18.8
2023-01-03T14:37:43.171Z,14
2023-01-03T14:39:40.807Z,8.1
2023-01-03T14:41:38.380Z,9.7
2023-01-03T14:43:35.987Z,41.8
2023-01-03T14:45:33.547Z,18.5
2023-01-03T14:51:34.284Z,14.2
2023-01-03T14:55:29.472Z,20
2023-01-03T14:57:27.066Z,21.2
2023-01-03T14:59:24.695Z,12
2023-01-03T15:11:18.109Z,5.6
2023-01-03T15:15:13.321Z,11
2023-01-03T15:19:16.408Z,8.5
2023-01-03T15:21:14.002Z,19
2023-01-03T15:23:11.568Z,8.3
2023-01-03T15:26:11.937Z,17.3
2023-01-03T15:28:09.535Z,13.1
2023-01-03T15:30:13.750Z,8.4
2023-01-03T15:32:12.688Z,5.9
2023-01-03T15:36:09.888Z,17.8
2023-01-03T15:38:05.366Z,46.6
2023-01-03T15:43:58.111Z,10.4
2023-01-03T15:48:01.184Z,8.6
2023-01-03T15:49:58.761Z,6.9
2023-01-03T15:51:56.339Z,20.2
2023-01-03T15:53:53.945Z,13.6
2023-01-03T15:55:51.519Z,14.1
2023-01-03T15:57:49.110Z,6.5
2023-01-03T15:59:54.567Z,11.7
2023-01-03T16:01:52.377Z,9.3
2023-01-03T16:03:49.911Z,12.3
2023-01-03T16:05:47.352Z,13.9
2023-01-03T16:07:44.947Z,13.2
2023-01-03T16:13:45.680Z,14.2
2023-01-03T16:15:43.202Z,23.5
2023-01-03T16:17:40.753Z,11.2
2023-01-03T16:20:07.636Z,8.3
2023-01-03T16:26:08.307Z,16.1
2023-01-03T16:28:11.896Z,14.7
2023-01-03T16:33:58.649Z,19.2
2023-01-03T16:35:56.215Z,15.6
2023-01-03T16:43:54.484Z,5.9
2023-01-03T16:45:52.108Z,20.4
2023-01-03T16:47:49.607Z,12.3
2023-01-03T16:49:47.195Z,28.1
2023-01-03T16:51:48.939Z,4.9
2023-01-03T16:53:50.242Z,24.8
2023-01-03T16:55:47.826Z,8.1
2023-01-03T16:57:51.920Z,16.9
2023-01-03T16:59:42.989Z,11.2
2023-01-03T17:01:40.669Z,12.6
2023-01-03T17:03:41.759Z,12.6
2023-01-03T17:05:35.768Z,14.7
2023-01-03T17:07:41.232Z,17.3
2023-01-03T17:11:36.391Z,10.2
2023-01-03T17:12:39.123Z,18.8
2023-01-03T17:14:36.706Z,4.9
2023-01-03T17:16:34.341Z,7
2023-01-03T17:18:31.851Z,6.9
2023-01-03T17:20:37.372Z,20
2023-01-03T17:22:34.939Z,9.9
2023-01-03T17:24:32.541Z,15.5
2023-01-03T17:26:30.113Z,22.4
2023-01-03T17:28:27.677Z,20.2
2023-01-03T17:30:25.411Z,17.9
2023-01-03T17:32:22.855Z,8.2
2023-01-03T17:34:28.340Z,9.4
2023-01-03T17:36:25.924Z,6.6
2023-01-03T17:42:18.700Z,14.6
2023-01-03T17:46:20.584Z,17.1
2023-01-03T17:48:19.323Z,23.2
2023-01-03T17:50:16.904Z,11.7
2023-01-03T17:52:14.486Z,11.2
2023-01-03T17:54:12.064Z,8.8
2023-01-03T17:56:09.636Z,26.4
2023-01-03T17:58:07.220Z,88.7
2023-01-03T18:00:04.825Z,8.6
2023-01-03T18:02:10.541Z,18.7
2023-01-03T18:04:07.904Z,5.7
2023-01-03T18:06:05.463Z,17.1
2023-01-03T18:07:08.185Z,22
2023-01-03T18:11:03.377Z,15.6
2023-01-03T18:13:00.949Z,8
2023-01-03T18:15:06.422Z,12.4
2023-01-03T18:17:04.017Z,11.2
2023-01-03T18:19:01.599Z,6.9
2023-01-03T18:20:59.181Z,7.7
2023-01-03T18:22:56.753Z,8.9
2023-01-03T18:24:54.412Z,6.5
2023-01-03T18:28:57.451Z,29.8
2023-01-03T18:32:52.587Z,24.1
2023-01-03T18:34:50.152Z,4.1
2023-01-03T18:36:47.765Z,15.6
2023-01-03T18:38:45.372Z,18.6
2023-01-03T18:40:42.921Z,16.3
2023-01-03T18:42:48.369Z,13
2023-01-03T18:48:41.150Z,5.2
2023-01-03T18:52:36.333Z,17.8
2023-01-03T18:56:39.440Z,13.7
2023-01-03T18:58:37.000Z,12
2023-01-03T19:00:34.577Z,17.7
2023-01-03T19:01:37.448Z,11.1
2023-01-03T19:03:35.211Z,11.1
2023-01-03T19:05:32.506Z,15.9
2023-01-03T19:11:33.123Z,6.4
2023-01-03T19:15:29.818Z,7.5
2023-01-03T19:17:27.407Z,30.1
2023-01-03T19:19:24.963Z,5.6
2023-01-03T19:21:22.585Z,25
2023-01-03T19:23:28.052Z,14.2
2023-01-03T19:25:25.650Z,6.9
2023-01-03T19:27:23.268Z,8.6
2023-01-03T19:29:20.836Z,8.8
2023-01-03T19:31:18.481Z,8.8
2023-01-03T19:33:15.980Z,4.6
2023-01-03T19:35:13.578Z,17.8
2023-01-03T19:37:19.041Z,7.3
2023-01-03T19:39:19.739Z,9.3
2023-01-03T19:41:14.234Z,5.9
2023-01-03T19:43:11.837Z,17.1
2023-01-03T19:45:09.424Z,19.9
2023-01-03T19:47:07.058Z,19
2023-01-03T19:49:04.585Z,12.1
2023-01-03T19:51:10.121Z,12.2
2023-01-03T19:53:07.689Z,3.1
2023-01-03T19:57:32.178Z,21.9
2023-01-03T19:59:29.760Z,11.4
2023-01-03T20:01:27.466Z,4.4
2023-01-03T20:03:33.137Z,2.3
2023-01-03T20:05:30.442Z,13
2023-01-03T20:07:28.025Z,6.6
2023-01-03T20:09:25.618Z,2.9
2023-01-03T20:11:23.218Z,11.4
2023-01-03T20:13:20.822Z,7.2
2023-01-03T20:15:18.403Z,10.5
2023-01-03T20:17:23.866Z,8.1
2023-01-03T20:19:21.448Z,13.8
2023-01-03T20:21:22.427Z,22.5
2023-01-03T20:23:16.645Z,9.4
2023-01-03T20:25:14.195Z,16
2023-01-03T20:27:11.779Z,12.1
2023-01-03T20:29:09.356Z,2.7
2023-01-03T20:31:20.153Z,54.7
2023-01-03T20:33:12.426Z,28.3
2023-01-03T20:35:45.692Z,10.4
2023-01-03T20:37:07.597Z,5.7
2023-01-03T20:39:05.223Z,16
2023-01-03T20:41:02.829Z,9.8
2023-01-03T20:43:00.398Z,8.9
2023-01-03T20:45:05.873Z,17.1
2023-01-03T20:47:03.550Z,7.2
2023-01-03T20:49:01.076Z,5.7
2023-01-03T20:52:01.401Z,12.3
2023-01-03T20:53:58.983Z,21.5
2023-01-03T20:55:56.631Z,15.7
2023-01-03T20:58:02.104Z,6.5
2023-01-03T20:59:59.707Z,23.3
2023-01-03T21:03:54.953Z,17.2
2023-01-03T21:05:52.464Z,5.4
2023-01-03T21:07:50.104Z,12.7
2023-01-03T21:09:47.640Z,9.4
2023-01-03T21:11:53.146Z,2.4
2023-01-03T21:13:51.537Z,7.3
2023-01-03T21:15:49.172Z,20.6
2023-01-03T21:19:44.358Z,7.6
2023-01-03T21:21:41.944Z,9.8
2023-01-03T21:23:39.514Z,9
2023-01-03T21:25:45.032Z,11.8
2023-01-03T21:27:42.607Z,13.6
2023-01-03T21:29:40.182Z,6.6
2023-01-03T21:31:37.875Z,9.5
2023-01-03T21:35:32.992Z,8.4
2023-01-03T21:37:30.552Z,17.8
2023-01-03T21:39:36.034Z,7.7
2023-01-03T21:41:33.630Z,10
2023-01-03T21:43:31.201Z,24.8
2023-01-03T21:44:33.956Z,3.1
2023-01-03T21:46:31.641Z,10.7
2023-01-03T21:48:29.692Z,23.2
2023-01-03T21:50:27.311Z,10.3
2023-01-03T21:52:32.778Z,7.1
2023-01-03T21:54:30.370Z,4.4
2023-01-03T21:56:28.025Z,8.2
2023-01-03T21:58:25.520Z,18.5
2023-01-03T22:00:23.121Z,23.2
2023-01-03T22:02:20.770Z,1.9
2023-01-03T22:06:23.814Z,8.8
2023-01-03T22:08:21.410Z,5.5
2023-01-03T22:10:18.982Z,5.6
2023-01-03T22:12:16.733Z,10
2023-01-03T22:16:11.869Z,6.1
2023-01-03T22:18:09.361Z,3.1
2023-01-03T22:24:09.954Z,6.6
2023-01-03T22:26:07.588Z,11.4
2023-01-03T22:28:05.204Z,9.7
2023-01-03T22:30:02.814Z,8.4
2023-01-03T22:32:00.490Z,7.1
2023-01-03T22:34:05.844Z,4.6
2023-01-03T22:36:03.457Z,16.8
2023-01-03T22:38:01.029Z,15.4
2023-01-03T22:39:03.797Z,8.6
2023-01-03T22:41:01.367Z,9
2023-01-03T22:44:56.602Z,5.1
2023-01-03T22:47:02.066Z,4.2
2023-01-03T22:48:59.652Z,6.7
2023-01-03T22:50:57.213Z,3.5
2023-01-03T22:52:54.831Z,4.9
2023-01-03T22:54:52.420Z,5
2023-01-03T22:58:47.591Z,6.7
2023-01-03T23:00:53.059Z,5
2023-01-03T23:02:50.701Z,14.6
2023-01-03T23:06:45.810Z,13.2
2023-01-03T23:08:43.391Z,21.1
2023-01-03T23:10:40.971Z,4.8
2023-01-03T23:12:38.588Z,2.4
2023-01-03T23:14:44.102Z,16.2
2023-01-03T23:16:41.747Z,7
2023-01-03T23:18:39.214Z,4.2
2023-01-03T23:20:36.826Z,6.8
2023-01-03T23:22:34.410Z,8.6
2023-01-03T23:24:31.994Z,17.8
2023-01-03T23:30:32.725Z,6.1
2023-01-03T23:34:53.196Z,9
2023-01-03T23:40:53.801Z,4.1
2023-01-03T23:42:51.403Z,3
2023-01-03T23:44:49.130Z,25.5
2023-01-03T23:48:44.309Z,6
2023-01-03T23:50:41.791Z,2.6
2023-01-03T23:52:39.405Z,6.5
2023-01-03T23:54:44.902Z,3.7
2023-01-03T23:56:42.464Z,12.9
2023-01-03T23:58:40.061Z,11.6
